sensor_id;sensor_type;location;lat;lon;timestamp;temperature;humidity
14192;DHT22;7177;48.572;7.838;2022-11-27T00:00:43;6.10;99.90
14192;DHT22;7177;48.572;7.838;2022-11-27T00:03:09;6.10;99.90
14192;DHT22;7177;48.572;7.838;2022-11-27T00:05:34;6.00;99.90
14192;DHT22;7177;48.572;7.838;2022-11-27T00:08:00;6.00;99.90
14192;DHT22;7177;48.572;7.838;2022-11-27T00:10:25;6.00;99.90
14192;DHT22;7177;48.572;7.838;2022-11-27T00:12:51;6.00;99.90
14192;DHT22;7177;48.572;7.838;2022-11-27T00:15:17;6.00;99.90
14192;DHT22;7177;48.572;7.838;2022-11-27T00:17:43;6.00;99.90
14192;DHT22;7177;48.572;7.838;2022-11-27T00:20:09;6.00;99.90
14192;DHT22;7177;48.572;7.838;2022-11-27T00:22:34;6.00;99.90
14192;DHT22;7177;48.572;7.838;2022-11-27T00:25:00;5.90;99.90
14192;DHT22;7177;48.572;7.838;2022-11-27T00:27:25;5.90;99.90
14192;DHT22;7177;48.572;7.838;2022-11-27T00:29:51;5.90;99.90
14192;DHT22;7177;48.572;7.838;2022-11-27T00:32:16;5.90;99.90
14192;DHT22;7177;48.572;7.838;2022-11-27T00:34:42;5.90;99.90
14192;DHT22;7177;48.572;7.838;2022-11-27T00:37:07;5.90;99.90
14192;DHT22;7177;48.572;7.838;2022-11-27T00:39:33;5.90;99.90
14192;DHT22;7177;48.572;7.838;2022-11-27T00:41:59;5.90;99.90
14192;DHT22;7177;48.572;7.838;2022-11-27T00:44:24;5.90;99.90
14192;DHT22;7177;48.572;7.838;2022-11-27T00:46:50;5.90;99.90
14192;DHT22;7177;48.572;7.838;2022-11-27T00:49:15;5.90;99.90
14192;DHT22;7177;48.572;7.838;2022-11-27T00:51:41;5.90;99.90
14192;DHT22;7177;48.572;7.838;2022-11-27T00:54:07;5.90;99.90
14192;DHT22;7177;48.572;7.838;2022-11-27T00:56:36;5.90;99.90
14192;DHT22;7177;48.572;7.838;2022-11-27T00:59:02;5.90;99.90
14192;DHT22;7177;48.572;7.838;2022-11-27T01:01:30;5.90;99.90
14192;DHT22;7177;48.572;7.838;2022-11-27T01:03:57;5.90;99.90
14192;DHT22;7177;48.572;7.838;2022-11-27T01:06:24;5.90;99.90
14192;DHT22;7177;48.572;7.838;2022-11-27T01:08:50;5.90;99.90
14192;DHT22;7177;48.572;7.838;2022-11-27T01:11:27;5.80;99.90
14192;DHT22;7177;48.572;7.838;2022-11-27T01:13:55;5.80;99.90
14192;DHT22;7177;48.572;7.838;2022-11-27T01:16:23;5.80;99.90
14192;DHT22;7177;48.572;7.838;2022-11-27T01:18:49;5.80;99.90
14192;DHT22;7177;48.572;7.838;2022-11-27T01:21:17;5.70;99.90
14192;DHT22;7177;48.572;7.838;2022-11-27T01:23:44;5.60;99.90
14192;DHT22;7177;48.572;7.838;2022-11-27T01:26:10;5.60;99.90
14192;DHT22;7177;48.572;7.838;2022-11-27T01:28:36;5.60;99.90
14192;DHT22;7177;48.572;7.838;2022-11-27T01:31:05;5.60;99.90
14192;DHT22;7177;48.572;7.838;2022-11-27T01:33:31;5.60;99.90
14192;DHT22;7177;48.572;7.838;2022-11-27T01:35:59;5.70;99.90
14192;DHT22;7177;48.572;7.838;2022-11-27T01:38:27;5.70;99.90
14192;DHT22;7177;48.572;7.838;2022-11-27T01:41:01;5.70;99.90
14192;DHT22;7177;48.572;7.838;2022-11-27T01:43:43;5.60;99.90
14192;DHT22;7177;48.572;7.838;2022-11-27T01:46:16;5.60;99.90
14192;DHT22;7177;48.572;7.838;2022-11-27T01:48:45;5.60;99.90
14192;DHT22;7177;48.572;7.838;2022-11-27T01:51:11;5.60;99.90
14192;DHT22;7177;48.572;7.838;2022-11-27T01:53:36;5.60;99.90
14192;DHT22;7177;48.572;7.838;2022-11-27T01:56:02;5.60;99.90
14192;DHT22;7177;48.572;7.838;2022-11-27T01:58:30;5.70;99.90
14192;DHT22;7177;48.572;7.838;2022-11-27T02:00:57;5.70;99.90
14192;DHT22;7177;48.572;7.838;2022-11-27T02:03:22;5.70;99.90
14192;DHT22;7177;48.572;7.838;2022-11-27T02:05:48;5.70;99.90
14192;DHT22;7177;48.572;7.838;2022-11-27T02:08:15;5.70;99.90
14192;DHT22;7177;48.572;7.838;2022-11-27T02:13:19;5.60;99.90
14192;DHT22;7177;48.572;7.838;2022-11-27T02:15:59;5.60;99.90
14192;DHT22;7177;48.572;7.838;2022-11-27T02:21:25;5.50;99.90
14192;DHT22;7177;48.572;7.838;2022-11-27T02:24:12;5.50;99.90
14192;DHT22;7177;48.572;7.838;2022-11-27T02:29:27;5.50;99.90
14192;DHT22;7177;48.572;7.838;2022-11-27T02:32:00;5.50;99.90
14192;DHT22;7177;48.572;7.838;2022-11-27T02:34:33;5.40;99.90
14192;DHT22;7177;48.572;7.838;2022-11-27T02:37:07;5.40;99.90
14192;DHT22;7177;48.572;7.838;2022-11-27T02:39:49;5.30;99.90
14192;DHT22;7177;48.572;7.838;2022-11-27T02:42:18;5.30;99.90
14192;DHT22;7177;48.572;7.838;2022-11-27T02:45:09;5.30;99.90
14192;DHT22;7177;48.572;7.838;2022-11-27T02:47:37;5.30;99.90
14192;DHT22;7177;48.572;7.838;2022-11-27T02:50:07;5.30;99.90
14192;DHT22;7177;48.572;7.838;2022-11-27T02:52:34;5.30;99.90
14192;DHT22;7177;48.572;7.838;2022-11-27T02:55:04;5.30;99.90
14192;DHT22;7177;48.572;7.838;2022-11-27T02:57:33;5.30;99.90
14192;DHT22;7177;48.572;7.838;2022-11-27T03:00:00;5.30;99.90
14192;DHT22;7177;48.572;7.838;2022-11-27T03:02:33;5.30;99.90
14192;DHT22;7177;48.572;7.838;2022-11-27T03:05:01;5.30;99.90
14192;DHT22;7177;48.572;7.838;2022-11-27T03:07:32;5.20;99.90
14192;DHT22;7177;48.572;7.838;2022-11-27T03:10:06;5.30;99.90
14192;DHT22;7177;48.572;7.838;2022-11-27T03:12:33;5.20;99.90
14192;DHT22;7177;48.572;7.838;2022-11-27T03:14:58;5.20;99.90
14192;DHT22;7177;48.572;7.838;2022-11-27T03:17:40;5.20;99.90
14192;DHT22;7177;48.572;7.838;2022-11-27T03:20:32;5.20;99.90
14192;DHT22;7177;48.572;7.838;2022-11-27T03:23:01;5.10;99.90
14192;DHT22;7177;48.572;7.838;2022-11-27T03:25:27;5.10;99.90
14192;DHT22;7177;48.572;7.838;2022-11-27T03:27:56;5.10;99.90
14192;DHT22;7177;48.572;7.838;2022-11-27T03:30:22;5.10;99.90
14192;DHT22;7177;48.572;7.838;2022-11-27T03:32:48;5.00;99.90
14192;DHT22;7177;48.572;7.838;2022-11-27T03:35:16;5.00;99.90
14192;DHT22;7177;48.572;7.838;2022-11-27T03:37:42;5.00;99.90
14192;DHT22;7177;48.572;7.838;2022-11-27T03:40:09;4.90;99.90
14192;DHT22;7177;48.572;7.838;2022-11-27T03:42:45;4.90;99.90
14192;DHT22;7177;48.572;7.838;2022-11-27T03:48:16;4.90;99.90
14192;DHT22;7177;48.572;7.838;2022-11-27T03:54:10;4.90;99.90
14192;DHT22;7177;48.572;7.838;2022-11-27T03:56:50;4.90;99.90
14192;DHT22;7177;48.572;7.838;2022-11-27T03:59:24;4.90;99.90
14192;DHT22;7177;48.572;7.838;2022-11-27T04:01:51;4.90;99.90
14192;DHT22;7177;48.572;7.838;2022-11-27T04:04:16;4.90;99.90
14192;DHT22;7177;48.572;7.838;2022-11-27T04:06:42;4.90;99.90
14192;DHT22;7177;48.572;7.838;2022-11-27T04:09:08;4.90;99.90
14192;DHT22;7177;48.572;7.838;2022-11-27T04:11:33;4.90;99.90
14192;DHT22;7177;48.572;7.838;2022-11-27T04:13:59;4.80;99.90
14192;DHT22;7177;48.572;7.838;2022-11-27T04:16:24;4.80;99.90
14192;DHT22;7177;48.572;7.838;2022-11-27T04:18:50;4.80;99.90
14192;DHT22;7177;48.572;7.838;2022-11-27T04:21:15;4.80;99.90
14192;DHT22;7177;48.572;7.838;2022-11-27T04:23:41;4.80;99.90
14192;DHT22;7177;48.572;7.838;2022-11-27T04:26:07;4.80;99.90
14192;DHT22;7177;48.572;7.838;2022-11-27T04:28:32;4.80;99.90
14192;DHT22;7177;48.572;7.838;2022-11-27T04:30:58;4.80;99.90
14192;DHT22;7177;48.572;7.838;2022-11-27T04:33:24;4.80;99.90
14192;DHT22;7177;48.572;7.838;2022-11-27T04:35:50;4.80;99.90
14192;DHT22;7177;48.572;7.838;2022-11-27T04:38:16;4.80;99.90
14192;DHT22;7177;48.572;7.838;2022-11-27T04:40:42;4.80;99.90
14192;DHT22;7177;48.572;7.838;2022-11-27T04:43:07;4.80;99.90
14192;DHT22;7177;48.572;7.838;2022-11-27T04:45:33;4.80;99.90
14192;DHT22;7177;48.572;7.838;2022-11-27T04:47:59;4.80;99.90
14192;DHT22;7177;48.572;7.838;2022-11-27T04:50:24;4.80;99.90
14192;DHT22;7177;48.572;7.838;2022-11-27T04:52:50;4.80;99.90
14192;DHT22;7177;48.572;7.838;2022-11-27T04:55:16;4.80;99.90
14192;DHT22;7177;48.572;7.838;2022-11-27T04:57:41;4.70;99.90
14192;DHT22;7177;48.572;7.838;2022-11-27T05:00:07;4.70;99.90
14192;DHT22;7177;48.572;7.838;2022-11-27T05:02:33;4.70;99.90
14192;DHT22;7177;48.572;7.838;2022-11-27T05:04:59;4.70;99.90
14192;DHT22;7177;48.572;7.838;2022-11-27T05:07:24;4.60;99.90
14192;DHT22;7177;48.572;7.838;2022-11-27T05:09:50;4.60;99.90
14192;DHT22;7177;48.572;7.838;2022-11-27T05:12:16;4.60;99.90
14192;DHT22;7177;48.572;7.838;2022-11-27T05:14:41;4.60;99.90
14192;DHT22;7177;48.572;7.838;2022-11-27T05:17:08;4.60;99.90
14192;DHT22;7177;48.572;7.838;2022-11-27T05:19:34;4.60;99.90
14192;DHT22;7177;48.572;7.838;2022-11-27T05:21:59;4.50;99.90
14192;DHT22;7177;48.572;7.838;2022-11-27T05:24:26;4.50;99.90
14192;DHT22;7177;48.572;7.838;2022-11-27T05:26:52;4.50;99.90
14192;DHT22;7177;48.572;7.838;2022-11-27T05:29:18;4.40;99.90
14192;DHT22;7177;48.572;7.838;2022-11-27T05:31:44;4.40;99.90
14192;DHT22;7177;48.572;7.838;2022-11-27T05:34:09;4.40;99.90
14192;DHT22;7177;48.572;7.838;2022-11-27T05:36:36;4.30;99.90
14192;DHT22;7177;48.572;7.838;2022-11-27T05:39:04;4.20;99.90
14192;DHT22;7177;48.572;7.838;2022-11-27T05:41:31;4.20;99.90
14192;DHT22;7177;48.572;7.838;2022-11-27T05:43:57;4.20;99.90
14192;DHT22;7177;48.572;7.838;2022-11-27T05:46:22;4.20;99.90
14192;DHT22;7177;48.572;7.838;2022-11-27T05:48:48;4.20;99.90
14192;DHT22;7177;48.572;7.838;2022-11-27T05:51:15;4.10;99.90
14192;DHT22;7177;48.572;7.838;2022-11-27T05:53:40;4.10;99.90
14192;DHT22;7177;48.572;7.838;2022-11-27T05:56:09;4.10;99.90
14192;DHT22;7177;48.572;7.838;2022-11-27T05:58:36;4.10;99.90
14192;DHT22;7177;48.572;7.838;2022-11-27T06:01:02;4.10;99.90
14192;DHT22;7177;48.572;7.838;2022-11-27T06:03:28;4.10;99.90
14192;DHT22;7177;48.572;7.838;2022-11-27T06:05:54;4.00;99.90
14192;DHT22;7177;48.572;7.838;2022-11-27T06:08:19;4.00;99.90
14192;DHT22;7177;48.572;7.838;2022-11-27T06:10:46;4.00;99.90
14192;DHT22;7177;48.572;7.838;2022-11-27T06:13:12;4.00;99.90
14192;DHT22;7177;48.572;7.838;2022-11-27T06:15:38;3.90;99.90
14192;DHT22;7177;48.572;7.838;2022-11-27T06:18:04;3.90;99.90
14192;DHT22;7177;48.572;7.838;2022-11-27T06:20:30;3.90;99.90
14192;DHT22;7177;48.572;7.838;2022-11-27T06:22:56;3.90;99.90
14192;DHT22;7177;48.572;7.838;2022-11-27T06:25:22;3.90;99.90
14192;DHT22;7177;48.572;7.838;2022-11-27T06:27:48;3.90;99.90
14192;DHT22;7177;48.572;7.838;2022-11-27T06:30:14;3.80;99.90
14192;DHT22;7177;48.572;7.838;2022-11-27T06:32:40;3.80;99.90
14192;DHT22;7177;48.572;7.838;2022-11-27T06:35:06;3.70;99.90
14192;DHT22;7177;48.572;7.838;2022-11-27T06:37:31;3.80;99.90
14192;DHT22;7177;48.572;7.838;2022-11-27T06:39:57;3.80;99.90
14192;DHT22;7177;48.572;7.838;2022-11-27T06:42:22;3.80;99.90
14192;DHT22;7177;48.572;7.838;2022-11-27T06:44:48;3.80;99.90
14192;DHT22;7177;48.572;7.838;2022-11-27T06:47:13;4.00;99.90
14192;DHT22;7177;48.572;7.838;2022-11-27T06:49:39;4.40;99.90
14192;DHT22;7177;48.572;7.838;2022-11-27T06:52:05;4.70;99.90
14192;DHT22;7177;48.572;7.838;2022-11-27T06:54:30;4.80;99.90
14192;DHT22;7177;48.572;7.838;2022-11-27T06:56:56;5.00;99.90
14192;DHT22;7177;48.572;7.838;2022-11-27T06:59:22;4.90;99.90
14192;DHT22;7177;48.572;7.838;2022-11-27T07:01:48;4.80;99.90
14192;DHT22;7177;48.572;7.838;2022-11-27T07:04:14;4.60;99.90
14192;DHT22;7177;48.572;7.838;2022-11-27T07:06:41;4.40;99.90
14192;DHT22;7177;48.572;7.838;2022-11-27T07:09:07;4.30;99.90
14192;DHT22;7177;48.572;7.838;2022-11-27T07:11:32;4.20;99.90
14192;DHT22;7177;48.572;7.838;2022-11-27T07:14:00;4.10;99.90
14192;DHT22;7177;48.572;7.838;2022-11-27T07:16:29;4.10;99.90
14192;DHT22;7177;48.572;7.838;2022-11-27T07:18:57;4.00;99.90
14192;DHT22;7177;48.572;7.838;2022-11-27T07:21:23;4.00;99.90
14192;DHT22;7177;48.572;7.838;2022-11-27T07:23:49;4.10;99.90
14192;DHT22;7177;48.572;7.838;2022-11-27T07:26:24;4.10;99.90
14192;DHT22;7177;48.572;7.838;2022-11-27T07:28:50;4.00;99.90
14192;DHT22;7177;48.572;7.838;2022-11-27T07:31:21;4.00;99.90
14192;DHT22;7177;48.572;7.838;2022-11-27T07:33:48;4.00;99.90
14192;DHT22;7177;48.572;7.838;2022-11-27T07:36:24;4.00;99.90
14192;DHT22;7177;48.572;7.838;2022-11-27T07:38:50;4.00;99.90
14192;DHT22;7177;48.572;7.838;2022-11-27T07:41:16;4.00;99.90
14192;DHT22;7177;48.572;7.838;2022-11-27T07:43:43;4.00;99.90
14192;DHT22;7177;48.572;7.838;2022-11-27T07:46:17;4.10;99.90
14192;DHT22;7177;48.572;7.838;2022-11-27T07:48:44;4.00;99.90
14192;DHT22;7177;48.572;7.838;2022-11-27T07:51:12;4.00;99.90
14192;DHT22;7177;48.572;7.838;2022-11-27T07:53:39;4.00;99.90
14192;DHT22;7177;48.572;7.838;2022-11-27T07:56:06;4.00;99.90
14192;DHT22;7177;48.572;7.838;2022-11-27T07:58:31;4.00;99.90
14192;DHT22;7177;48.572;7.838;2022-11-27T08:00:57;4.00;99.90
14192;DHT22;7177;48.572;7.838;2022-11-27T08:03:23;4.00;99.90
14192;DHT22;7177;48.572;7.838;2022-11-27T08:05:49;4.10;99.90
14192;DHT22;7177;48.572;7.838;2022-11-27T08:08:14;4.20;99.90
14192;DHT22;7177;48.572;7.838;2022-11-27T08:10:40;4.20;99.90
14192;DHT22;7177;48.572;7.838;2022-11-27T08:13:05;4.20;99.90
14192;DHT22;7177;48.572;7.838;2022-11-27T08:15:31;4.20;99.90
14192;DHT22;7177;48.572;7.838;2022-11-27T08:17:57;4.20;99.90
14192;DHT22;7177;48.572;7.838;2022-11-27T08:20:23;4.30;99.90
14192;DHT22;7177;48.572;7.838;2022-11-27T08:22:49;4.60;99.90
14192;DHT22;7177;48.572;7.838;2022-11-27T08:25:15;4.60;99.90
14192;DHT22;7177;48.572;7.838;2022-11-27T08:27:41;4.50;99.90
14192;DHT22;7177;48.572;7.838;2022-11-27T08:30:07;4.50;99.90
14192;DHT22;7177;48.572;7.838;2022-11-27T08:32:33;4.50;99.90
14192;DHT22;7177;48.572;7.838;2022-11-27T08:34:58;4.50;99.90
14192;DHT22;7177;48.572;7.838;2022-11-27T08:37:25;4.60;99.90
14192;DHT22;7177;48.572;7.838;2022-11-27T08:39:51;4.60;99.90
14192;DHT22;7177;48.572;7.838;2022-11-27T08:42:17;4.60;99.90
14192;DHT22;7177;48.572;7.838;2022-11-27T08:44:42;4.70;99.90
14192;DHT22;7177;48.572;7.838;2022-11-27T08:47:08;4.60;99.90
14192;DHT22;7177;48.572;7.838;2022-11-27T08:49:33;4.70;99.90
14192;DHT22;7177;48.572;7.838;2022-11-27T08:51:59;4.70;99.90
14192;DHT22;7177;48.572;7.838;2022-11-27T08:54:24;4.80;99.90
14192;DHT22;7177;48.572;7.838;2022-11-27T08:56:50;4.80;99.90
14192;DHT22;7177;48.572;7.838;2022-11-27T08:59:17;4.80;99.90
14192;DHT22;7177;48.572;7.838;2022-11-27T09:01:42;4.90;99.90
14192;DHT22;7177;48.572;7.838;2022-11-27T09:04:08;4.90;99.90
14192;DHT22;7177;48.572;7.838;2022-11-27T09:09:02;5.10;99.90
14192;DHT22;7177;48.572;7.838;2022-11-27T09:11:29;5.10;99.90
14192;DHT22;7177;48.572;7.838;2022-11-27T09:16:22;5.40;99.90
14192;DHT22;7177;48.572;7.838;2022-11-27T09:18:50;5.60;99.90
14192;DHT22;7177;48.572;7.838;2022-11-27T09:21:17;5.70;99.90
14192;DHT22;7177;48.572;7.838;2022-11-27T09:23:43;5.70;99.90
14192;DHT22;7177;48.572;7.838;2022-11-27T09:26:11;5.70;99.90
14192;DHT22;7177;48.572;7.838;2022-11-27T09:28:38;5.70;99.90
14192;DHT22;7177;48.572;7.838;2022-11-27T09:31:06;5.70;99.90
14192;DHT22;7177;48.572;7.838;2022-11-27T09:33:34;5.60;99.90
14192;DHT22;7177;48.572;7.838;2022-11-27T09:36:08;5.60;99.90
14192;DHT22;7177;48.572;7.838;2022-11-27T09:38:34;5.60;99.90
14192;DHT22;7177;48.572;7.838;2022-11-27T09:43:50;5.60;99.90
14192;DHT22;7177;48.572;7.838;2022-11-27T09:46:25;5.70;99.90
14192;DHT22;7177;48.572;7.838;2022-11-27T09:48:54;5.70;99.90
14192;DHT22;7177;48.572;7.838;2022-11-27T09:51:33;5.70;99.90
14192;DHT22;7177;48.572;7.838;2022-11-27T09:56:41;5.80;99.90
14192;DHT22;7177;48.572;7.838;2022-11-27T09:59:15;5.70;99.90
14192;DHT22;7177;48.572;7.838;2022-11-27T10:01:42;5.80;99.90
14192;DHT22;7177;48.572;7.838;2022-11-27T10:04:10;5.80;99.90
14192;DHT22;7177;48.572;7.838;2022-11-27T10:09:35;6.10;99.90
14192;DHT22;7177;48.572;7.838;2022-11-27T10:15:09;6.20;99.90
14192;DHT22;7177;48.572;7.838;2022-11-27T10:17:46;6.10;99.90
14192;DHT22;7177;48.572;7.838;2022-11-27T10:20:31;6.00;99.90
14192;DHT22;7177;48.572;7.838;2022-11-27T10:25:47;6.10;99.90
14192;DHT22;7177;48.572;7.838;2022-11-27T10:28:30;6.10;99.90
14192;DHT22;7177;48.572;7.838;2022-11-27T10:31:12;6.00;99.90
14192;DHT22;7177;48.572;7.838;2022-11-27T10:33:46;6.10;99.90
14192;DHT22;7177;48.572;7.838;2022-11-27T10:36:16;6.10;99.90
14192;DHT22;7177;48.572;7.838;2022-11-27T10:38:46;6.10;99.90
14192;DHT22;7177;48.572;7.838;2022-11-27T10:41:23;6.20;99.90
14192;DHT22;7177;48.572;7.838;2022-11-27T10:43:52;6.20;99.90
14192;DHT22;7177;48.572;7.838;2022-11-27T10:46:26;6.20;99.90
14192;DHT22;7177;48.572;7.838;2022-11-27T10:48:52;6.20;99.90
14192;DHT22;7177;48.572;7.838;2022-11-27T10:51:21;6.30;99.90
14192;DHT22;7177;48.572;7.838;2022-11-27T10:53:51;6.30;99.90
14192;DHT22;7177;48.572;7.838;2022-11-27T10:59:02;6.30;99.90
14192;DHT22;7177;48.572;7.838;2022-11-27T11:01:45;6.30;99.90
14192;DHT22;7177;48.572;7.838;2022-11-27T11:04:13;6.40;99.90
14192;DHT22;7177;48.572;7.838;2022-11-27T11:06:43;6.40;99.90
14192;DHT22;7177;48.572;7.838;2022-11-27T11:09:22;6.40;99.90
14192;DHT22;7177;48.572;7.838;2022-11-27T11:14:20;6.70;99.90
14192;DHT22;7177;48.572;7.838;2022-11-27T11:16:47;6.70;99.90
14192;DHT22;7177;48.572;7.838;2022-11-27T11:19:29;6.80;99.90
14192;DHT22;7177;48.572;7.838;2022-11-27T11:21:55;6.80;99.90
14192;DHT22;7177;48.572;7.838;2022-11-27T11:24:32;6.70;99.90
14192;DHT22;7177;48.572;7.838;2022-11-27T11:27:04;6.70;99.90
14192;DHT22;7177;48.572;7.838;2022-11-27T11:29:39;6.80;99.90
14192;DHT22;7177;48.572;7.838;2022-11-27T11:32:13;6.80;99.90
14192;DHT22;7177;48.572;7.838;2022-11-27T11:35:09;7.00;99.90
14192;DHT22;7177;48.572;7.838;2022-11-27T11:37:38;7.10;99.90
14192;DHT22;7177;48.572;7.838;2022-11-27T11:43:05;7.10;99.90
14192;DHT22;7177;48.572;7.838;2022-11-27T11:45:43;7.10;99.90
14192;DHT22;7177;48.572;7.838;2022-11-27T11:48:22;7.20;99.90
14192;DHT22;7177;48.572;7.838;2022-11-27T11:51:12;7.10;99.90
14192;DHT22;7177;48.572;7.838;2022-11-27T11:53:42;7.10;99.90
14192;DHT22;7177;48.572;7.838;2022-11-27T11:56:30;7.10;99.90
14192;DHT22;7177;48.572;7.838;2022-11-27T11:59:01;7.00;99.90
14192;DHT22;7177;48.572;7.838;2022-11-27T12:18:00;6.90;99.90
14192;DHT22;7177;48.572;7.838;2022-11-27T12:20:41;7.00;99.90
14192;DHT22;7177;48.572;7.838;2022-11-27T12:29:02;7.00;99.90
14192;DHT22;7177;48.572;7.838;2022-11-27T12:34:44;7.00;99.90
14192;DHT22;7177;48.572;7.838;2022-11-27T12:42:31;6.90;99.90
14192;DHT22;7177;48.572;7.838;2022-11-27T12:45:23;6.90;99.90
14192;DHT22;7177;48.572;7.838;2022-11-27T12:47:58;6.90;99.90
14192;DHT22;7177;48.572;7.838;2022-11-27T12:50:40;7.00;99.90
14192;DHT22;7177;48.572;7.838;2022-11-27T12:53:16;6.90;99.90
14192;DHT22;7177;48.572;7.838;2022-11-27T13:05:04;7.10;99.90
14192;DHT22;7177;48.572;7.838;2022-11-27T13:07:45;7.10;99.90
14192;DHT22;7177;48.572;7.838;2022-11-27T13:13:13;7.10;99.90
14192;DHT22;7177;48.572;7.838;2022-11-27T13:16:06;7.10;99.90
14192;DHT22;7177;48.572;7.838;2022-11-27T13:21:33;7.10;99.90
14192;DHT22;7177;48.572;7.838;2022-11-27T13:24:00;7.10;99.90
14192;DHT22;7177;48.572;7.838;2022-11-27T13:26:34;7.10;99.90
14192;DHT22;7177;48.572;7.838;2022-11-27T13:29:04;7.20;99.90
14192;DHT22;7177;48.572;7.838;2022-11-27T13:31:35;7.20;99.90
14192;DHT22;7177;48.572;7.838;2022-11-27T13:34:05;7.20;99.90
14192;DHT22;7177;48.572;7.838;2022-11-27T13:36:42;7.30;99.90
14192;DHT22;7177;48.572;7.838;2022-11-27T13:39:23;7.30;99.90
14192;DHT22;7177;48.572;7.838;2022-11-27T13:44:40;7.40;99.90
14192;DHT22;7177;48.572;7.838;2022-11-27T13:47:12;7.40;99.90
14192;DHT22;7177;48.572;7.838;2022-11-27T13:54:32;7.40;99.90
14192;DHT22;7177;48.572;7.838;2022-11-27T13:57:09;7.40;99.90
14192;DHT22;7177;48.572;7.838;2022-11-27T13:59:34;7.30;99.90
14192;DHT22;7177;48.572;7.838;2022-11-27T14:02:02;7.20;99.90
14192;DHT22;7177;48.572;7.838;2022-11-27T14:04:30;7.20;99.90
14192;DHT22;7177;48.572;7.838;2022-11-27T14:07:08;7.20;99.90
14192;DHT22;7177;48.572;7.838;2022-11-27T14:09:54;7.20;99.90
14192;DHT22;7177;48.572;7.838;2022-11-27T14:12:30;7.10;99.90
14192;DHT22;7177;48.572;7.838;2022-11-27T14:15:30;7.20;99.90
14192;DHT22;7177;48.572;7.838;2022-11-27T14:18:18;7.20;99.90
14192;DHT22;7177;48.572;7.838;2022-11-27T14:20:50;7.20;99.90
14192;DHT22;7177;48.572;7.838;2022-11-27T14:23:47;7.20;99.90
14192;DHT22;7177;48.572;7.838;2022-11-27T14:28:40;7.20;99.90
14192;DHT22;7177;48.572;7.838;2022-11-27T14:33:49;7.10;99.90
14192;DHT22;7177;48.572;7.838;2022-11-27T14:36:31;7.20;99.90
14192;DHT22;7177;48.572;7.838;2022-11-27T14:38:59;7.10;99.90
14192;DHT22;7177;48.572;7.838;2022-11-27T14:41:26;7.10;99.90
14192;DHT22;7177;48.572;7.838;2022-11-27T14:44:04;7.10;99.90
14192;DHT22;7177;48.572;7.838;2022-11-27T14:46:31;7.10;99.90
14192;DHT22;7177;48.572;7.838;2022-11-27T14:51:32;7.10;99.90
14192;DHT22;7177;48.572;7.838;2022-11-27T14:54:01;7.10;99.90
14192;DHT22;7177;48.572;7.838;2022-11-27T14:56:31;7.10;99.90
14192;DHT22;7177;48.572;7.838;2022-11-27T14:58:58;7.00;99.90
14192;DHT22;7177;48.572;7.838;2022-11-27T15:01:26;7.00;99.90
14192;DHT22;7177;48.572;7.838;2022-11-27T15:06:22;6.90;99.90
14192;DHT22;7177;48.572;7.838;2022-11-27T15:08:48;9.60;99.90
14192;DHT22;7177;48.572;7.838;2022-11-27T15:11:15;7.00;99.90
14192;DHT22;7177;48.572;7.838;2022-11-27T15:13:42;7.00;99.90
14192;DHT22;7177;48.572;7.838;2022-11-27T15:16:20;7.00;99.90
14192;DHT22;7177;48.572;7.838;2022-11-27T15:18:48;7.00;99.90
14192;DHT22;7177;48.572;7.838;2022-11-27T15:21:20;7.00;99.90
14192;DHT22;7177;48.572;7.838;2022-11-27T15:23:47;6.90;99.90
14192;DHT22;7177;48.572;7.838;2022-11-27T15:26:25;6.90;99.90
14192;DHT22;7177;48.572;7.838;2022-11-27T15:28:53;6.80;99.90
14192;DHT22;7177;48.572;7.838;2022-11-27T15:31:35;6.80;99.90
14192;DHT22;7177;48.572;7.838;2022-11-27T15:36:46;6.70;99.90
14192;DHT22;7177;48.572;7.838;2022-11-27T15:41:53;6.60;99.90
14192;DHT22;7177;48.572;7.838;2022-11-27T15:44:19;6.60;99.90
14192;DHT22;7177;48.572;7.838;2022-11-27T15:46:45;6.60;99.90
14192;DHT22;7177;48.572;7.838;2022-11-27T15:49:12;6.60;99.90
14192;DHT22;7177;48.572;7.838;2022-11-27T15:51:38;6.50;99.90
14192;DHT22;7177;48.572;7.838;2022-11-27T15:54:04;6.50;99.90
14192;DHT22;7177;48.572;7.838;2022-11-27T15:56:29;6.50;99.90
14192;DHT22;7177;48.572;7.838;2022-11-27T15:58:55;6.40;99.90
14192;DHT22;7177;48.572;7.838;2022-11-27T16:01:20;6.40;99.90
14192;DHT22;7177;48.572;7.838;2022-11-27T16:03:46;6.40;99.90
14192;DHT22;7177;48.572;7.838;2022-11-27T16:06:11;6.40;99.90
14192;DHT22;7177;48.572;7.838;2022-11-27T16:08:37;6.40;99.90
14192;DHT22;7177;48.572;7.838;2022-11-27T16:11:06;6.30;99.90
14192;DHT22;7177;48.572;7.838;2022-11-27T16:13:32;6.30;99.90
14192;DHT22;7177;48.572;7.838;2022-11-27T16:16:05;6.30;99.90
14192;DHT22;7177;48.572;7.838;2022-11-27T16:18:31;6.40;99.90
14192;DHT22;7177;48.572;7.838;2022-11-27T16:21:04;6.40;99.90
14192;DHT22;7177;48.572;7.838;2022-11-27T16:23:31;6.30;99.90
14192;DHT22;7177;48.572;7.838;2022-11-27T16:25:57;6.30;99.90
14192;DHT22;7177;48.572;7.838;2022-11-27T16:28:24;6.30;99.90
14192;DHT22;7177;48.572;7.838;2022-11-27T16:30:52;6.30;99.90
14192;DHT22;7177;48.572;7.838;2022-11-27T16:33:18;6.20;99.90
14192;DHT22;7177;48.572;7.838;2022-11-27T16:35:46;6.10;99.90
14192;DHT22;7177;48.572;7.838;2022-11-27T16:38:11;6.10;99.90
14192;DHT22;7177;48.572;7.838;2022-11-27T16:40:37;6.10;99.90
14192;DHT22;7177;48.572;7.838;2022-11-27T16:43:03;6.10;99.90
14192;DHT22;7177;48.572;7.838;2022-11-27T16:45:28;6.10;99.90
14192;DHT22;7177;48.572;7.838;2022-11-27T16:47:54;6.10;99.90
14192;DHT22;7177;48.572;7.838;2022-11-27T16:50:19;6.10;99.90
14192;DHT22;7177;48.572;7.838;2022-11-27T16:52:45;6.10;99.90
14192;DHT22;7177;48.572;7.838;2022-11-27T16:55:10;6.10;99.90
14192;DHT22;7177;48.572;7.838;2022-11-27T16:57:36;6.10;99.90
14192;DHT22;7177;48.572;7.838;2022-11-27T17:00:02;6.10;99.90
14192;DHT22;7177;48.572;7.838;2022-11-27T17:02:28;6.10;99.90
14192;DHT22;7177;48.572;7.838;2022-11-27T17:04:54;6.10;99.90
14192;DHT22;7177;48.572;7.838;2022-11-27T17:07:20;6.10;99.90
14192;DHT22;7177;48.572;7.838;2022-11-27T17:09:46;6.00;99.90
14192;DHT22;7177;48.572;7.838;2022-11-27T17:12:11;6.00;99.90
14192;DHT22;7177;48.572;7.838;2022-11-27T17:14:37;6.00;99.90
14192;DHT22;7177;48.572;7.838;2022-11-27T17:17:03;5.90;99.90
14192;DHT22;7177;48.572;7.838;2022-11-27T17:19:30;5.90;99.90
14192;DHT22;7177;48.572;7.838;2022-11-27T17:21:56;5.90;99.90
14192;DHT22;7177;48.572;7.838;2022-11-27T17:24:21;5.80;99.90
14192;DHT22;7177;48.572;7.838;2022-11-27T17:26:49;5.80;99.90
14192;DHT22;7177;48.572;7.838;2022-11-27T17:29:17;5.90;99.90
14192;DHT22;7177;48.572;7.838;2022-11-27T17:31:43;5.90;99.90
14192;DHT22;7177;48.572;7.838;2022-11-27T17:34:11;6.00;99.90
14192;DHT22;7177;48.572;7.838;2022-11-27T17:36:38;6.00;99.90
14192;DHT22;7177;48.572;7.838;2022-11-27T17:39:06;6.00;99.90
14192;DHT22;7177;48.572;7.838;2022-11-27T17:41:32;6.00;99.90
14192;DHT22;7177;48.572;7.838;2022-11-27T17:43:58;6.00;99.90
14192;DHT22;7177;48.572;7.838;2022-11-27T17:46:25;6.00;99.90
14192;DHT22;7177;48.572;7.838;2022-11-27T17:48:52;6.10;99.90
14192;DHT22;7177;48.572;7.838;2022-11-27T17:51:19;6.10;99.90
14192;DHT22;7177;48.572;7.838;2022-11-27T17:53:45;6.10;99.90
14192;DHT22;7177;48.572;7.838;2022-11-27T17:56:14;6.10;99.90
14192;DHT22;7177;48.572;7.838;2022-11-27T17:58:39;6.10;99.90
14192;DHT22;7177;48.572;7.838;2022-11-27T18:01:11;6.10;99.90
14192;DHT22;7177;48.572;7.838;2022-11-27T18:03:38;6.00;99.90